Decoded Metar for RKPK (KIMHAE in KOREA) (IATA:PUS) | Meteo·Mobile Aviation Weather
aviador You're here:

RKPK Decoded Metar

KIMHAE in KOREA
Report Time2019-02-17 19:00:00
UTC Time2019-02-17 19:46:11
Flight Rules vfr VFR
Wind320° at 08 kt
W.Decomp.*RWY 36: 6.7 kt HW 4.4 kt LCW
W.Rank320° ranks 2
Current wind is above 320° avg. (4.9)
Visibility9999 m
Phenomena:N/A
Clouds:N/A
Expected CloudBase > 5,200 ft AGL from Temp-Dew spread
CeilingNone
Temp01°C (ISA -14)
Dew Point-12°C (38% RH)
AAT-5.1°C
QNH1024 hPa
Density Alt-1,985 ft
Elevation49 ft
Report Wrong Elevation
Raw Report
METAR RKPK 171900Z 32008KT CAVOK 01/M12 Q1024=

Extra information for RKPK:More info

Metar Taf Metar & Taf Last 4 Metars F.Rules Stats Wind Profile Meteogram Temp Stats Airport Information Weather charts Add Link Nearby VenuesMetar ALERT Operation Metar Decoded Social comments